Enter the Airport ICAO Code

Search by Airport or City

Current Weather

LEVC | Valencia Airport

Valencia, Valencian Community, Spain

Last Update 24 Minutes Ago

Partly Cloudy Sky

Temperature of 10 ēC

Calm Wind

Temperature

10 ēC

Dew Point Temperature

09 ēC

Relative Humidity

93.52 %

Wind Direction

None

Wind Velocity

0 km/h (0 kt)

Gusts

None

Visibility

Greater than 10 Kilometers

Sea Level Pressure

1027 hPa (Hectopascals)

Layers of Clouds

30% to 60% of Sky Covered from 762 mts (2500 ft) Above Ground Level.

METAR LEVC 270300Z 00000KT 9999 SCT025 10/09 Q1027 NOSIG

Weather Forecast

LEVC | Valencia Airport

Valencia, Valencian Community, Spain

Forecast valid for the next 21 Hours

From now on it is expected:

Mostly Cloudy Sky

Light Winds from Variable Directions

From now on it is expected 3 hours with intermittent periods of:

Fog

In 10 hours it is expected the begining of 4 hours with intermittent periods of:

Moderate Winds from East

Maximum Temperature

17 ēC in 10 Hours

Minimum Temperature

06 ēC in 3 Hours

TAF LEVC 262300Z 2700/2724 VRB04KT 9999 FEW020 BKN030 TX17/2713Z TN06/2706Z PROB40 TEMPO 2700/2707 3000 BR BKN014 PROB30 TEMPO 2700/2706 0600 FG VV001 TEMPO 2713/2717 10010KT